Salipta, Alabama
Current Conditions -  °F | °C
As of 9:53 PM on Sunday 23 Nov 2014 (Local Time) from KGZH Reporting Station
Overcast Overcast  
Wind Chill: 67°   Ceiling: 600
Heat Index: 67°   Visibility: 10mi
Dew Point: 64°   Wind: 14mph
Humidity: 90%   Direction: 210°SSW
Pressure: 29.76"   Gusts: 22mph
Location:  31.4434°N, 87.8529°W
Report Text: KGZH 240353Z AUTO 21012G19KT 10SM OVC006 19/18 A2976 RMK AO2 SLP075 T01940178
Loading
Personal Weather Stations






























Interactive Weather Map New forecast layout! Learn more

10-Day Weather Forecast

Advertisements
Track Severe Weather on mobile